Preview of NWS' New Version of Forecast
This preview is not operational and should not be used for support decisions.

Terminal Aerodrome Forecast (TAF)

Issued by National Weather Service (NWS)

                            
000
FTUS42 KKEY 210718 AAA
TAFMTH
TAF AMD
KMTH 210718Z 2107/2206 35011G21KT P6SM SCT035
     FM211400 02012G20KT P6SM SKC=